Time;durP1;ratioP1;P1;durP2;ratioP2;P2;SDS_P1;SDS_P2;PMS_P1;PMS_P2;Temp;Humidity;BMP_temperature;BMP_pressure;BME280_temperature;BME280_humidity;BME280_pressure;Samples;Min_cycle;Max_cycle;Signal;HPM_P1;HPM_P2
2022/10/19 00:01:10;;;;;;;19.20;14.27;;;;;;;;;;5094274;28;20047;-72
2022/10/19 00:03:36;;;;;;;24.05;15.57;;;;;;;;;;5093711;28;20059;-74
2022/10/19 00:06:12;;;;;;;23.13;13.82;;;;;;;;;;5093638;28;20032;-72
2022/10/19 00:08:38;;;;;;;22.38;14.45;;;;;;;;;;5093014;28;20016;-72
2022/10/19 00:11:04;;;;;;;19.38;13.60;;;;;;;;;;5093800;28;20111;-74
2022/10/19 00:13:30;;;;;;;22.33;14.38;;;;;;;;;;5093658;28;20020;-74
2022/10/19 00:15:56;;;;;;;19.17;13.02;;;;;;;;;;5093986;28;20396;-74
2022/10/19 00:18:22;;;;;;;18.38;13.23;;;;;;;;;;5093829;28;20024;-72
2022/10/19 00:20:48;;;;;;;19.05;13.45;;;;;;;;;;5093098;28;20024;-72
2022/10/19 00:23:14;;;;;;;19.15;12.88;;;;;;;;;;5092646;28;20477;-74
2022/10/19 00:25:40;;;;;;;18.88;13.02;;;;;;;;;;5092784;28;20102;-75
2022/10/19 00:28:06;;;;;;;16.60;12.10;;;13.10;99.90;;;;;;5093892;28;20099;-74
2022/10/19 00:30:35;;;;;;;24.10;15.45;;;13.00;99.90;;;;;;5093055;28;20012;-74
2022/10/19 00:33:01;;;;;;;17.95;13.43;;;12.80;99.90;;;;;;5093658;28;20023;-74
2022/10/19 00:35:27;;;;;;;18.13;13.00;;;12.70;99.90;;;;;;5092709;28;20036;-72
2022/10/19 00:37:52;;;;;;;19.33;12.90;;;12.60;99.90;;;;;;5093873;28;20385;-74
2022/10/19 00:40:18;;;;;;;22.33;14.57;;;12.60;99.90;;;;;;5093494;28;20028;-74
2022/10/19 00:42:52;;;;;;;23.92;15.23;;;12.50;99.90;;;;;;5092821;28;20136;-74
2022/10/19 00:45:18;;;;;;;27.65;16.98;;;12.50;99.90;;;;;;5084473;28;20036;-74
2022/10/19 00:47:44;;;;;;;30.38;17.52;;;12.50;99.90;;;;;;5092535;28;20020;-74
2022/10/19 00:50:12;;;;;;;28.67;16.83;;;12.50;99.90;;;;;;5092881;28;20055;-73
2022/10/19 00:52:37;;;;;;;29.85;18.77;;;12.50;99.90;;;;;;5092243;28;20020;-74
2022/10/19 00:55:03;;;;;;;26.98;17.35;;;12.50;99.90;;;;;;5090614;28;20108;-73
2022/10/19 00:57:31;;;;;;;27.05;16.38;;;12.50;99.90;;;;;;5091899;28;20465;-72
2022/10/19 00:59:59;;;;;;;27.73;16.10;;;12.50;99.90;;;;;;5093942;28;20024;-75
2022/10/19 01:02:24;;;;;;;27.33;16.65;;;12.50;99.90;;;;;;5092156;28;20062;-72
2022/10/19 01:04:51;;;;;;;24.23;15.80;;;12.60;99.90;;;;;;5093506;28;20453;-75
2022/10/19 01:07:18;;;;;;;24.10;15.40;;;12.60;99.90;;;;;;5093082;28;20024;-74
2022/10/19 01:09:44;;;;;;;23.83;16.25;;;12.60;99.90;;;;;;5091473;28;20024;-75
2022/10/19 01:12:35;;;;;;;26.98;17.50;;;12.70;99.90;;;;;;5092587;28;20027;-72
2022/10/19 01:15:19;;;;;;;26.25;15.98;;;12.70;99.90;;;;;;5093413;28;20031;-74
2022/10/19 01:18:24;;;;;;;23.55;16.60;;;12.80;99.90;;;;;;5092079;28;20034;-73
2022/10/19 01:21:31;;;;;;;26.20;15.82;;;12.80;99.90;;;;;;5070566;28;20040;-73
2022/10/19 01:24:18;;;;;;;24.95;16.00;;;12.80;99.90;;;;;;4995699;28;20395;-74
2022/10/19 01:26:43;;;;;;;30.23;17.13;;;12.90;99.90;;;;;;5073310;28;20444;-72
2022/10/19 01:29:43;;;;;;;24.58;15.90;;;12.90;99.90;;;;;;5093038;28;20024;-72
2022/10/19 01:32:31;;;;;;;22.10;15.05;;;13.00;99.90;;;;;;5060784;28;20044;-73
2022/10/19 01:35:11;;;;;;;23.60;16.90;;;13.00;99.90;;;;;;5093133;28;20031;-74
2022/10/19 01:37:44;;;;;;;;;;;13.10;99.90;;;;;;5091872;28;20111;-74
2022/10/19 01:40:19;;;;;;;32.17;18.75;;;13.10;99.90;;;;;;5092777;28;19907;-74
2022/10/19 01:42:48;;;;;;;26.55;17.17;;;13.20;99.90;;;;;;5074656;28;20412;-74
2022/10/19 01:45:24;;;;;;;27.50;17.92;;;13.20;99.90;;;;;;5098199;28;20056;-74
2022/10/19 01:47:59;;;;;;;25.17;16.90;;;13.30;99.90;;;;;;5097208;28;20032;-74
2022/10/19 01:50:41;;;;;;;25.50;17.48;;;13.30;99.90;;;;;;5095146;28;20047;-71
2022/10/19 01:53:12;;;;;;;24.15;16.33;;;13.30;99.90;;;;;;5084857;28;20028;-73
2022/10/19 01:55:41;;;;;;;22.30;15.98;;;13.40;99.90;;;;;;5090391;28;20032;-74
2022/10/19 01:58:15;;;;;;;24.75;15.77;;;13.40;99.90;;;;;;5092725;28;20032;-73
2022/10/19 02:00:44;;;;;;;27.17;16.58;;;13.40;99.90;;;;;;5091558;28;20035;-73
2022/10/19 02:03:11;;;;;;;24.60;15.05;;;13.40;99.90;;;;;;5092440;28;20054;-74
2022/10/19 02:05:38;;;;;;;35.72;18.13;;;13.40;99.90;;;;;;5091188;28;20077;-74
2022/10/19 02:08:26;;;;;;;37.50;18.40;;;13.50;99.90;;;;;;5092264;28;20020;-74
2022/10/19 02:10:53;;;;;;;44.05;20.77;;;13.50;99.90;;;;;;5091863;28;20080;-75
2022/10/19 02:13:20;;;;;;;44.05;21.73;;;13.50;99.90;;;;;;5091743;28;20426;-74
2022/10/19 02:15:51;;;;;;;38.97;18.65;;;13.50;99.90;;;;;;5091363;28;20135;-74
2022/10/19 02:18:22;;;;;;;55.92;24.13;;;13.50;99.90;;;;;;5091531;28;20426;-74
2022/10/19 02:20:48;;;;;;;44.08;19.67;;;13.60;99.90;;;;;;5091065;28;20046;-74
2022/10/19 02:23:16;;;;;;;43.90;20.45;;;13.60;99.90;;;;;;5092327;28;20457;-75
2022/10/19 02:25:41;;;;;;;46.53;22.05;;;13.60;99.90;;;;;;5084467;28;20032;-74
2022/10/19 02:28:07;;;;;;;55.05;22.85;;;13.60;99.90;;;;;;5091739;28;20034;-73
2022/10/19 02:30:33;;;;;;;50.22;21.05;;;13.60;99.90;;;;;;5090433;28;20380;-75
2022/10/19 02:32:58;;;;;;;56.08;24.63;;;13.60;99.90;;;;;;5091926;28;20019;-75
2022/10/19 02:35:24;;;;;;;63.75;26.65;;;13.70;99.90;;;;;;5090950;28;20560;-72
2022/10/19 02:37:50;;;;;;;68.20;26.80;;;13.70;99.90;;;;;;5091692;28;20104;-75
2022/10/19 02:40:16;;;;;;;69.63;28.98;;;13.70;99.90;;;;;;5091890;28;20055;-76
2022/10/19 02:42:50;;;;;;;69.10;29.42;;;13.70;99.90;;;;;;5083512;28;20019;-75
2022/10/19 02:45:29;;;;;;;87.07;31.52;;;13.70;99.90;;;;;;5091833;28;20060;-74
2022/10/19 02:48:03;;;;;;;79.97;30.88;;;13.70;99.90;;;;;;5091582;28;20042;-74
2022/10/19 02:50:29;;;;;;;87.72;32.17;;;13.70;99.90;;;;;;5089335;28;20451;-74
2022/10/19 02:53:00;;;;;;;71.40;28.52;;;13.70;99.90;;;;;;5091354;28;20024;-74
2022/10/19 02:55:27;;;;;;;71.05;27.10;;;13.80;99.90;;;;;;5089698;28;20090;-72
2022/10/19 02:57:53;;;;;;;87.38;30.85;;;13.80;99.90;;;;;;5091267;28;20028;-74
2022/10/19 03:00:19;;;;;;;78.70;29.55;;;13.90;99.90;;;;;;5090856;28;20032;-74
2022/10/19 03:02:44;;;;;;;76.88;30.50;;;13.90;99.90;;;;;;5089733;28;20035;-74
2022/10/19 03:05:10;;;;;;;71.82;26.88;;;14.00;99.90;;;;;;5091366;28;20036;-73
2022/10/19 03:07:35;;;;;;;67.32;26.00;;;14.00;99.90;;;;;;5089546;28;20093;-74
2022/10/19 03:10:01;;;;;;;69.13;25.08;;;14.00;99.90;;;;;;5091108;28;20028;-73
2022/10/19 03:12:27;;;;;;;55.60;25.00;;;14.00;99.90;;;;;;5089341;28;20052;-73
2022/10/19 03:14:53;;;;;;;69.13;26.30;;;14.00;99.90;;;;;;5091368;28;20020;-73
2022/10/19 03:17:18;;;;;;;67.05;26.02;;;14.00;99.90;;;;;;5090523;28;20031;-74
2022/10/19 03:19:44;;;;;;;75.55;27.85;;;14.00;99.90;;;;;;5090150;28;20460;-73
2022/10/19 03:22:09;;;;;;;67.63;26.77;;;14.00;99.90;;;;;;5090303;28;20081;-75
2022/10/19 03:24:35;;;;;;;65.32;28.50;;;14.00;99.90;;;;;;5090025;28;20051;-73
2022/10/19 03:27:01;;;;;;;58.47;26.00;;;13.90;99.90;;;;;;5090430;28;20024;-72
2022/10/19 03:29:27;;;;;;;60.58;25.33;;;13.90;99.90;;;;;;5089888;28;20028;-72
2022/10/19 03:31:52;;;;;;;65.68;26.83;;;13.90;99.90;;;;;;5090298;28;20024;-74
2022/10/19 03:34:18;;;;;;;57.38;26.55;;;13.80;99.90;;;;;;5093824;28;20034;-73
2022/10/19 03:36:44;;;;;;;62.28;26.58;;;13.90;99.90;;;;;;5093797;28;20565;-74
2022/10/19 03:39:11;;;;;;;57.10;24.83;;;13.80;99.90;;;;;;5095107;28;20039;-74
2022/10/19 03:41:38;;;;;;;52.28;23.98;;;13.90;99.90;;;;;;5093669;28;20024;-74
2022/10/19 03:44:05;;;;;;;57.90;25.45;;;13.80;99.90;;;;;;5094965;28;20453;-74
2022/10/19 03:46:30;;;;;;;63.92;27.40;;;13.80;99.90;;;;;;5088380;28;20038;-74
2022/10/19 03:48:56;;;;;;;60.10;27.10;;;13.80;99.90;;;;;;5094509;28;20043;-74
2022/10/19 03:51:24;;;;;;;60.88;26.40;;;13.80;99.90;;;;;;5094045;28;20032;-72
2022/10/19 03:54:13;;;;;;;62.78;28.15;;;13.80;99.90;;;;;;5093799;28;20036;-73
2022/10/19 03:56:39;;;;;;;58.70;25.50;;;13.80;99.90;;;;;;5086898;28;20016;-73
2022/10/19 03:59:06;;;;;;;62.42;27.60;;;13.80;99.90;;;;;;5094860;28;20530;-74
2022/10/19 04:01:37;;;;;;;61.65;28.33;;;13.80;99.90;;;;;;5093239;28;20053;-74
2022/10/19 04:04:05;;;;;;;54.47;25.88;;;13.80;99.90;;;;;;5094292;28;20400;-74
2022/10/19 04:06:35;;;;;;;58.30;26.25;;;13.80;99.90;;;;;;5081561;28;20036;-74
2022/10/19 04:09:01;;;;;;;59.28;26.60;;;13.80;99.90;;;;;;5094506;28;20081;-74
2022/10/19 04:11:29;;;;;;;60.95;27.13;;;13.80;99.90;;;;;;5092814;28;20046;-74
2022/10/19 04:13:56;;;;;;;54.33;24.80;;;13.80;99.90;;;;;;5093696;28;20036;-75
2022/10/19 04:16:23;;;;;;;57.95;27.88;;;13.70;99.90;;;;;;5074714;28;20035;-72
2022/10/19 04:18:48;;;;;;;59.47;26.38;;;13.80;99.90;;;;;;5075968;28;20024;-75
2022/10/19 04:21:32;;;;;;;57.03;26.05;;;13.70;99.90;;;;;;5093687;28;20032;-75
2022/10/19 04:24:02;;;;;;;51.85;24.38;;;13.80;99.90;;;;;;5094189;28;20442;-75
2022/10/19 04:26:28;;;;;;;;;;;13.70;99.90;;;;;;5092558;28;20058;-74
2022/10/19 04:28:59;;;;;;;62.70;26.60;;;13.70;99.90;;;;;;5094499;28;20314;-74
2022/10/19 04:31:25;;;;;;;59.42;24.92;;;13.70;99.90;;;;;;5092680;28;20031;-73
2022/10/19 04:33:51;;;;;;;59.53;26.58;;;13.70;99.90;;;;;;5093905;28;20020;-74
2022/10/19 04:36:17;;;;;;;50.88;25.25;;;13.80;99.90;;;;;;5093337;28;20051;-75
2022/10/19 04:38:42;;;;;;;58.28;26.05;;;13.70;99.90;;;;;;5087648;28;20094;-75
2022/10/19 04:41:11;;;;;;;63.65;28.00;;;13.70;99.90;;;;;;5093233;28;20103;-74
2022/10/19 04:43:37;;;;;;;64.07;27.08;;;13.70;99.90;;;;;;5093017;28;20503;-74
2022/10/19 04:46:08;;;;;;;61.00;27.58;;;13.70;99.90;;;;;;5092928;28;20043;-74
2022/10/19 04:48:35;;;;;;;51.33;26.55;;;13.60;99.90;;;;;;5084915;28;20024;-74
2022/10/19 04:51:01;;;;;;;54.67;26.70;;;13.70;99.90;;;;;;5093111;28;20105;-74
2022/10/19 04:53:27;;;;;;;50.67;24.73;;;13.60;99.90;;;;;;5092554;28;20054;-74
2022/10/19 04:55:53;;;;;;;48.75;24.30;;;13.60;99.90;;;;;;5069842;28;20053;-75
2022/10/19 04:58:18;;;;;;;44.65;24.83;;;13.60;99.90;;;;;;5091820;28;20484;-74
2022/10/19 05:00:44;;;;;;;47.75;24.42;;;13.60;99.90;;;;;;5091591;28;20637;-74
2022/10/19 05:03:12;;;;;;;44.17;24.48;;;13.60;99.90;;;;;;5093545;28;20020;-74
2022/10/19 05:05:38;;;;;;;43.22;22.98;;;13.40;99.90;;;;;;5092348;28;20119;-73
2022/10/19 05:08:04;;;;;;;41.22;22.85;;;13.50;99.90;;;;;;5093557;28;20429;-74
2022/10/19 05:10:30;;;;;;;39.17;22.38;;;13.50;99.90;;;;;;5090853;28;20028;-74
2022/10/19 05:12:55;;;;;;;38.03;23.40;;;13.50;99.90;;;;;;5066578;28;20031;-74
2022/10/19 05:15:21;;;;;;;37.35;22.85;;;13.40;99.90;;;;;;5086444;28;20028;-72
2022/10/19 05:17:47;;;;;;;42.13;24.80;;;13.40;99.90;;;;;;5082470;28;20016;-74
2022/10/19 05:20:13;;;;;;;42.03;23.15;;;13.40;99.90;;;;;;5085864;28;20521;-74
2022/10/19 05:22:39;;;;;;;43.60;23.42;;;13.40;99.90;;;;;;5084911;28;20069;-75
2022/10/19 05:25:07;;;;;;;41.72;22.77;;;13.30;99.90;;;;;;5079390;28;20404;-74
2022/10/19 05:27:33;;;;;;;44.97;24.30;;;13.30;99.90;;;;;;5087437;28;20805;-75
2022/10/19 05:29:58;;;;;;;45.17;24.20;;;13.40;99.90;;;;;;5086460;28;20088;-75
2022/10/19 05:32:25;;;;;;;49.38;26.02;;;13.40;99.90;;;;;;5090625;28;20427;-73
2022/10/19 05:34:51;;;;;;;44.47;27.27;;;13.40;99.90;;;;;;5092246;28;20036;-75
2022/10/19 05:37:16;;;;;;;57.72;30.67;;;13.40;99.90;;;;;;5086971;28;20525;-74
2022/10/19 05:39:42;;;;;;;53.80;31.35;;;13.40;99.90;;;;;;5087635;28;20028;-73
2022/10/19 05:42:08;;;;;;;54.90;30.73;;;13.40;99.90;;;;;;5084745;28;20668;-73
2022/10/19 05:44:34;;;;;;;51.20;30.00;;;13.40;99.90;;;;;;5090249;28;20035;-72
2022/10/19 05:47:01;;;;;;;44.38;28.02;;;13.50;99.90;;;;;;5091360;28;20035;-78
2022/10/19 05:49:26;;;;;;;48.83;26.83;;;13.60;99.90;;;;;;5093750;28;20535;-74
2022/10/19 05:51:53;;;;;;;45.88;26.17;;;13.50;99.90;;;;;;5081658;28;20059;-73
2022/10/19 05:54:19;;;;;;;38.88;24.55;;;13.60;99.90;;;;;;5083622;28;20056;-74
2022/10/19 05:56:45;;;;;;;42.78;25.23;;;13.60;99.90;;;;;;5087338;28;20008;-78
2022/10/19 05:59:16;;;;;;;36.72;24.48;;;13.50;99.90;;;;;;5083882;28;20063;-71
2022/10/19 06:01:42;;;;;;;39.28;24.58;;;13.50;99.90;;;;;;5083806;28;20649;-73
2022/10/19 06:04:09;;;;;;;34.45;22.75;;;13.60;99.90;;;;;;5085738;28;20016;-74
2022/10/19 06:06:35;;;;;;;35.80;23.13;;;13.60;99.90;;;;;;5081990;28;20460;-73
2022/10/19 06:09:02;;;;;;;36.15;23.05;;;13.60;99.90;;;;;;5083584;28;20029;-81
2022/10/19 06:11:33;;;;;;;32.75;22.77;;;13.60;99.90;;;;;;5068748;28;20020;-75
2022/10/19 06:14:01;;;;;;;29.17;20.77;;;13.60;99.90;;;;;;5086949;28;20152;-74
2022/10/19 06:16:28;;;;;;;32.60;22.35;;;13.60;99.90;;;;;;5082973;28;20496;-72
2022/10/19 06:18:54;;;;;;;33.53;21.83;;;13.60;99.90;;;;;;5087155;28;20024;-75
2022/10/19 06:21:22;;;;;;;31.58;20.20;;;13.70;99.90;;;;;;5085357;28;20152;-72
2022/10/19 06:23:53;;;;;;;27.00;18.75;;;13.70;99.90;;;;;;5076409;28;20029;-74
2022/10/19 06:26:20;;;;;;;31.45;21.33;;;13.70;99.90;;;;;;5089482;28;20051;-73
2022/10/19 06:28:46;;;;;;;27.95;20.30;;;13.70;99.90;;;;;;5086920;28;20077;-75
2022/10/19 06:31:13;;;;;;;24.67;19.73;;;13.80;99.90;;;;;;5088389;28;20024;-74
2022/10/19 06:33:40;;;;;;;28.23;19.60;;;13.80;99.90;;;;;;5091328;28;20027;-75
2022/10/19 06:36:12;;;;;;;29.85;20.02;;;13.80;99.90;;;;;;5091337;28;20028;-74
2022/10/19 06:38:38;;;;;;;29.23;19.20;;;13.90;99.90;;;;;;5091173;28;20464;-77
2022/10/19 06:41:04;;;;;;;28.75;20.83;;;14.00;99.90;;;;;;5090923;28;20127;-75
2022/10/19 06:43:30;;;;;;;32.55;19.80;;;14.10;99.90;;;;;;5086228;28;20035;-74
2022/10/19 06:45:55;;;;;;;28.67;19.58;;;14.20;99.90;;;;;;5085635;28;20044;-73
2022/10/19 06:48:21;;;;;;;33.90;20.30;;;14.10;99.90;;;;;;5090228;28;20039;-70
2022/10/19 06:50:56;;;;;;;28.17;19.63;;;14.10;99.90;;;;;;5090388;28;20396;-74
2022/10/19 06:53:22;;;;;;;34.55;21.23;;;14.10;99.90;;;;;;5090792;28;20043;-70
2022/10/19 06:55:48;;;;;;;30.88;21.85;;;14.10;99.90;;;;;;5089021;28;20024;-74
2022/10/19 06:58:13;;;;;;;29.85;21.80;;;14.10;99.90;;;;;;5089311;28;20384;-73
2022/10/19 07:00:39;;;;;;;29.25;21.25;;;14.20;99.90;;;;;;5089599;28;20032;-76
2022/10/19 07:03:05;;;;;;;36.58;22.20;;;14.20;99.90;;;;;;5090858;28;20106;-75
2022/10/19 07:05:30;;;;;;;33.63;21.95;;;14.30;99.90;;;;;;5089507;28;20564;-74
2022/10/19 07:07:56;;;;;;;32.55;22.08;;;14.30;99.90;;;;;;5089894;28;20028;-75
2022/10/19 07:10:22;;;;;;;30.73;21.63;;;14.30;99.90;;;;;;5090204;28;20058;-71
2022/10/19 07:12:48;;;;;;;27.55;20.02;;;14.30;99.90;;;;;;5085549;28;20568;-75
2022/10/19 07:15:13;;;;;;;29.88;20.90;;;14.30;99.90;;;;;;5090356;28;20081;-74
2022/10/19 07:17:39;;;;;;;30.13;21.10;;;14.30;99.90;;;;;;5089979;28;20073;-77
2022/10/19 07:20:05;;;;;;;22.95;18.38;;;14.40;99.90;;;;;;5090412;28;20028;-75
2022/10/19 07:22:31;;;;;;;26.50;17.50;;;14.40;99.90;;;;;;5082411;28;20099;-74
2022/10/19 07:24:57;;;;;;;23.48;15.63;;;14.50;99.90;;;;;;5090782;28;20111;-74
2022/10/19 07:27:22;;;;;;;20.65;15.43;;;14.60;99.90;;;;;;5083194;28;20028;-71
2022/10/19 07:29:48;;;;;;;16.38;12.90;;;14.70;99.90;;;;;;5090275;28;20110;-75
2022/10/19 07:32:14;;;;;;;20.75;13.02;;;14.80;99.90;;;;;;5088798;28;20103;-75
2022/10/19 07:34:39;;;;;;;16.27;11.65;;;14.90;99.90;;;;;;5089481;28;20032;-75
2022/10/19 07:37:05;;;;;;;15.85;12.13;;;15.00;99.90;;;;;;5090556;28;20107;-74
2022/10/19 07:39:31;;;;;;;16.40;10.65;;;15.10;99.90;;;;;;5089797;28;20036;-74
2022/10/19 07:41:56;;;;;;;13.45;11.10;;;15.20;99.90;;;;;;5090749;28;20032;-74
2022/10/19 07:44:22;;;;;;;11.77;10.20;;;15.30;99.90;;;;;;5089947;28;20465;-71
2022/10/19 07:46:49;;;;;;;15.73;11.27;;;15.40;99.90;;;;;;5089540;28;20131;-74
2022/10/19 07:49:17;;;;;;;13.88;9.65;;;15.40;99.90;;;;;;5089765;28;20055;-74
2022/10/19 07:51:43;;;;;;;14.93;11.60;;;15.50;99.90;;;;;;5089547;28;20020;-74
2022/10/19 07:54:09;;;;;;;12.93;10.55;;;15.50;99.90;;;;;;5090738;28;20025;-74
2022/10/19 07:56:34;;;;;;;14.15;11.02;;;15.50;99.90;;;;;;5089629;28;20358;-74
2022/10/19 07:59:01;;;;;;;15.13;10.77;;;15.50;99.90;;;;;;5090233;28;20091;-74
2022/10/19 08:01:39;;;;;;;14.27;10.20;;;15.60;99.90;;;;;;5088988;28;20035;-74
2022/10/19 08:04:05;;;;;;;17.13;11.32;;;15.60;99.90;;;;;;5087297;28;20020;-74
2022/10/19 08:06:31;;;;;;;14.52;10.55;;;15.80;99.90;;;;;;5089152;28;20032;-74
2022/10/19 08:08:57;;;;;;;13.98;9.88;;;15.90;99.90;;;;;;5090374;28;20073;-75
2022/10/19 08:11:25;;;;;;;18.35;11.13;;;15.90;99.90;;;;;;5089166;28;20024;-72
2022/10/19 08:13:52;;;;;;;12.45;9.63;;;16.00;99.90;;;;;;5090318;28;20423;-75
2022/10/19 08:16:28;;;;;;;21.38;10.95;;;16.10;99.90;;;;;;5089784;28;20039;-75
2022/10/19 08:19:00;;;;;;;14.60;9.18;;;16.20;99.90;;;;;;5090528;28;20035;-75
2022/10/19 08:21:27;;;;;;;14.43;10.20;;;16.40;99.90;;;;;;5092678;28;20048;-73
2022/10/19 08:23:52;;;;;;;13.30;10.60;;;16.50;99.90;;;;;;5094195;28;20036;-75
2022/10/19 08:26:18;;;;;;;12.70;10.30;;;16.60;99.90;;;;;;5093375;28;20389;-74
2022/10/19 08:28:44;;;;;;;13.07;9.80;;;16.60;99.90;;;;;;5092970;28;20070;-74
2022/10/19 08:31:15;;;;;;;13.90;11.43;;;16.60;99.90;;;;;;5093395;28;20024;-75
2022/10/19 08:33:41;;;;;;;17.33;10.57;;;16.50;99.90;;;;;;5090647;28;20143;-75
2022/10/19 08:36:08;;;;;;;13.57;11.00;;;16.50;99.90;;;;;;5092639;28;20032;-73
2022/10/19 08:38:35;;;;;;;14.32;10.93;;;16.30;99.90;;;;;;5092916;28;20048;-73
2022/10/19 08:41:33;;;;;;;15.55;10.02;;;16.30;99.90;;;;;;5093220;28;20027;-74
2022/10/19 08:44:09;;;;;;;14.35;10.00;;;16.20;99.90;;;;;;5094012;28;20103;-74
2022/10/19 08:46:59;;;;;;;13.82;9.95;;;16.40;99.90;;;;;;5080548;28;20038;-74
2022/10/19 08:49:27;;;;;;;12.48;9.73;;;16.40;99.90;;;;;;5092507;28;20133;-71
2022/10/19 08:51:59;;;;;;;13.88;9.90;;;16.40;99.90;;;;;;5093183;28;20024;-73
2022/10/19 08:54:34;;;;;;;13.13;9.88;;;16.40;99.90;;;;;;5092493;28;20028;-71
2022/10/19 08:57:07;;;;;;;15.10;9.38;;;16.40;99.90;;;;;;5092964;28;20475;-74
2022/10/19 08:59:42;;;;;;;16.73;9.55;;;16.30;99.90;;;;;;5092818;28;20035;-74
2022/10/19 09:02:34;;;;;;;12.35;9.18;;;16.30;99.90;;;;;;5092810;28;20017;-74
2022/10/19 09:05:13;;;;;;;12.15;9.63;;;16.30;99.90;;;;;;5093169;28;20417;-75
2022/10/19 09:07:44;;;;;;;15.82;10.65;;;16.30;99.90;;;;;;5092568;28;20028;-74
2022/10/19 09:10:21;;;;;;;14.70;9.93;;;16.30;99.90;;;;;;5092600;28;20024;-74
2022/10/19 09:12:57;;;;;;;12.75;8.80;;;16.30;99.90;;;;;;5091991;28;20024;-75
2022/10/19 09:15:39;;;;;;;15.70;10.05;;;16.30;99.90;;;;;;5083261;28;20501;-70
2022/10/19 09:18:11;;;;;;;15.60;9.77;;;16.40;99.90;;;;;;5092947;28;20044;-73
2022/10/19 09:20:40;;;;;;;15.55;9.48;;;16.40;99.90;;;;;;5072939;28;20111;-74
2022/10/19 09:23:23;;;;;;;14.15;10.05;;;16.40;99.90;;;;;;5081223;28;20419;-74
2022/10/19 09:25:50;;;;;;;12.05;9.43;;;16.40;99.90;;;;;;5092227;28;20064;-74
2022/10/19 09:28:31;;;;;;;14.20;9.57;;;16.50;99.90;;;;;;5090706;28;20032;-74
2022/10/19 09:30:58;;;;;;;13.75;7.90;;;16.50;99.90;;;;;;5090986;28;20479;-73
2022/10/19 09:33:34;;;;;;;8.95;5.85;;;16.60;99.90;;;;;;5091985;28;20202;-71
2022/10/19 09:36:03;;;;;;;12.13;6.80;;;16.60;99.90;;;;;;5091857;28;20128;-74
2022/10/19 09:38:30;;;;;;;9.60;7.60;;;16.60;99.90;;;;;;5092123;28;20012;-75
2022/10/19 09:40:57;;;;;;;9.52;6.93;;;16.70;99.90;;;;;;5092324;28;20032;-74
2022/10/19 09:43:26;;;;;;;8.32;6.55;;;16.80;99.90;;;;;;5092059;28;20055;-71
2022/10/19 09:46:03;;;;;;;9.75;6.78;;;16.80;99.90;;;;;;5091811;28;20107;-75
2022/10/19 09:48:40;;;;;;;8.05;6.88;;;16.90;99.90;;;;;;5091091;28;20031;-74
2022/10/19 09:51:14;;;;;;;13.00;7.15;;;17.00;99.90;;;;;;5091813;28;20111;-75
2022/10/19 09:53:52;;;;;;;10.07;6.20;;;17.10;99.90;;;;;;5090862;28;20399;-75
2022/10/19 09:56:24;;;;;;;9.82;5.28;;;17.10;99.90;;;;;;5091376;28;20511;-75
2022/10/19 09:58:52;;;;;;;9.07;7.03;;;17.10;99.90;;;;;;5092312;28;20020;-74
2022/10/19 10:01:57;;;;;;;9.23;6.40;;;17.00;99.90;;;;;;5092404;28;20531;-74
2022/10/19 10:04:23;;;;;;;8.40;6.15;;;16.90;99.90;;;;;;5073508;28;20036;-73
2022/10/19 10:06:48;;;;;;;5.55;4.93;;;16.80;99.90;;;;;;5091750;28;20027;-75
2022/10/19 10:09:22;;;;;;;7.40;5.70;;;16.80;99.90;;;;;;5091894;28;20039;-74
2022/10/19 10:11:49;;;;;;;7.25;4.75;;;16.80;99.90;;;;;;5091729;28;20105;-74
2022/10/19 10:14:35;;;;;;;3.67;3.38;;;16.70;99.90;;;;;;5092456;28;20027;-75
2022/10/19 10:17:11;;;;;;;4.90;4.20;;;16.70;99.90;;;;;;5081851;28;20477;-76
2022/10/19 10:19:56;;;;;;;9.32;4.63;;;16.70;99.90;;;;;;5091473;28;20028;-77
2022/10/19 10:22:28;;;;;;;5.60;4.63;;;16.70;99.90;;;;;;5091199;28;20031;-73
2022/10/19 10:24:55;;;;;;;8.35;4.18;;;16.70;99.90;;;;;;5092076;28;20039;-75
2022/10/19 10:27:28;;;;;;;6.95;4.53;;;16.70;99.90;;;;;;5091602;28;20028;-71
2022/10/19 10:29:55;;;;;;;4.20;3.60;;;16.70;99.90;;;;;;5082621;28;20167;-75
2022/10/19 10:32:21;;;;;;;4.07;3.65;;;16.70;99.90;;;;;;5091341;28;20026;-75
2022/10/19 10:35:01;;;;;;;4.65;3.85;;;16.80;99.90;;;;;;5091660;28;20024;-76
2022/10/19 10:37:33;;;;;;;;;;;16.80;99.90;;;;;;5090862;28;20039;-76
2022/10/19 10:39:59;;;;;;;5.05;4.07;;;16.90;99.90;;;;;;5091723;28;19994;-77
2022/10/19 10:42:35;;;;;;;8.60;4.13;;;16.90;99.90;;;;;;5090518;28;20563;-76
2022/10/19 10:45:01;;;;;;;5.30;4.07;;;16.90;99.90;;;;;;5091289;28;20401;-74
2022/10/19 10:47:28;;;;;;;5.38;4.00;;;16.90;99.90;;;;;;5090251;28;20024;-75
2022/10/19 10:49:58;;;;;;;4.78;3.83;;;17.00;99.90;;;;;;5090779;28;20052;-76
2022/10/19 10:52:26;;;;;;;;;;;17.10;99.90;;;;;;5090716;28;20084;-72
2022/10/19 10:55:03;;;;;;;5.20;4.32;;;17.30;99.90;;;;;;5091475;28;19942;-75
2022/10/19 10:57:40;;;;;;;3.95;3.00;;;17.40;99.90;;;;;;5090095;28;20028;-76
2022/10/19 11:00:15;;;;;;;5.45;3.35;;;17.50;99.90;;;;;;5091133;28;20044;-75
2022/10/19 11:03:13;;;;;;;5.88;3.35;;;17.60;99.90;;;;;;5090063;28;20024;-74
2022/10/19 11:05:38;;;;;;;5.32;3.35;;;17.80;99.90;;;;;;5082577;28;20100;-74
2022/10/19 11:08:27;;;;;;;3.72;3.25;;;17.80;99.90;;;;;;5090027;28;20523;-75
2022/10/19 11:11:00;;;;;;;3.30;2.80;;;17.90;99.90;;;;;;5080976;28;20081;-76
2022/10/19 11:13:47;;;;;;;4.82;4.05;;;17.90;99.90;;;;;;5090363;28;20413;-74
2022/10/19 11:16:17;;;;;;;7.15;3.85;;;18.10;99.90;;;;;;5090699;28;20032;-75
2022/10/19 11:18:54;;;;;;;5.35;3.42;;;18.20;99.90;;;;;;5090351;28;20016;-74
2022/10/19 11:21:36;;;;;;;15.55;3.90;;;18.30;99.90;;;;;;5090511;28;20032;-76
2022/10/19 11:24:13;;;;;;;13.98;3.47;;;18.30;99.90;;;;;;5090944;28;20047;-76
2022/10/19 11:27:07;;;;;;;9.77;2.95;;;18.30;99.90;;;;;;5086497;28;20039;-76
2022/10/19 11:29:50;;;;;;;4.38;3.22;;;18.40;99.90;;;;;;5083278;28;20040;-75
2022/10/19 11:32:28;;;;;;;8.98;3.45;;;18.30;99.90;;;;;;5083742;28;20050;-75
2022/10/19 11:35:14;;;;;;;9.52;3.00;;;18.30;99.90;;;;;;5088691;28;20165;-75
2022/10/19 11:37:59;;;;;;;10.02;3.45;;;18.20;99.90;;;;;;5089761;28;20024;-76
2022/10/19 11:40:46;;;;;;;6.53;2.72;;;18.30;99.90;;;;;;5089812;28;20043;-74
2022/10/19 11:43:30;;;;;;;18.08;4.28;;;18.20;99.90;;;;;;5090715;28;20429;-75
2022/10/19 11:46:24;;;;;;;6.55;2.55;;;18.40;99.90;;;;;;5090252;28;20050;-76
2022/10/19 11:48:58;;;;;;;25.65;4.65;;;18.50;99.90;;;;;;5085760;28;20096;-74
2022/10/19 11:51:43;;;;;;;8.05;2.97;;;18.70;99.90;;;;;;5089287;28;20024;-75
2022/10/19 11:54:36;;;;;;;9.05;3.40;;;18.80;99.90;;;;;;5091316;28;20027;-76
2022/10/19 11:57:13;;;;;;;6.95;3.53;;;18.90;99.90;;;;;;5094221;28;20066;-75
2022/10/19 12:00:08;;;;;;;6.53;3.30;;;19.00;99.90;;;;;;5093941;28;20024;-75
2022/10/19 12:02:43;;;;;;;4.30;3.47;;;18.90;99.90;;;;;;5052548;28;20090;-75
2022/10/19 12:05:25;;;;;;;3.92;3.05;;;18.90;99.90;;;;;;5094333;28;20533;-76
2022/10/19 12:08:06;;;;;;;4.05;3.08;;;19.00;99.90;;;;;;5094542;28;20028;-75
2022/10/19 12:10:40;;;;;;;3.60;3.30;;;18.90;99.90;;;;;;5085901;28;20028;-74
2022/10/19 12:13:15;;;;;;;9.02;3.42;;;18.80;99.90;;;;;;5094534;28;20046;-75
2022/10/19 12:15:46;;;;;;;4.20;3.35;;;18.90;99.90;;;;;;5091018;28;20122;-72
2022/10/19 12:18:33;;;;;;;5.00;3.40;;;18.90;99.90;;;;;;5092829;28;20024;-75
2022/10/19 12:21:03;;;;;;;4.10;3.00;;;19.00;99.90;;;;;;5093934;28;20028;-73
2022/10/19 12:23:38;;;;;;;4.70;3.67;;;18.90;99.90;;;;;;5093249;28;20028;-74
2022/10/19 12:26:10;;;;;;;5.75;3.47;;;18.80;99.90;;;;;;5093269;28;20051;-74
2022/10/19 12:28:43;;;;;;;7.50;3.50;;;18.90;99.90;;;;;;5081685;28;20020;-75
2022/10/19 12:31:10;;;;;;;6.47;2.90;;;18.80;99.90;;;;;;5080317;28;20033;-74
2022/10/19 12:33:36;;;;;;;4.10;2.83;;;18.90;99.90;;;;;;5089276;28;20115;-75
2022/10/19 12:36:24;;;;;;;3.92;2.88;;;18.90;99.90;;;;;;5090052;28;20107;-74
2022/10/19 12:39:19;;;;;;;5.95;4.45;;;19.00;99.90;;;;;;5083560;28;20072;-73
2022/10/19 12:42:13;;;;;;;5.50;4.20;;;18.90;99.90;;;;;;5065425;28;21241;-74
2022/10/19 12:45:07;;;;;;;4.68;4.20;;;18.80;99.90;;;;;;5085583;28;20417;-75
2022/10/19 12:47:32;;;;;;;6.00;3.22;;;18.90;99.90;;;;;;5084947;28;20028;-75
2022/10/19 12:49:58;;;;;;;5.30;3.20;;;19.10;99.90;;;;;;5093290;28;20048;-75
2022/10/19 12:52:51;;;;;;;6.65;3.00;;;19.40;99.90;;;;;;5091306;28;20032;-72
2022/10/19 12:55:16;;;;;;;6.07;3.00;;;20.00;99.90;;;;;;5088091;28;20097;-75
2022/10/19 12:57:47;;;;;;;4.68;2.55;;;20.60;99.90;;;;;;5092143;28;20583;-75